ウィーン の空港の天気 - METARとTAF

ウィーン国際空港 ( LOWW / VIE ) - オーストリア ウィーン
飛行場実況気象(Metar)
観測時間06/23 03:20 CEST (06/23 01:20 UTC)
風向・風速西南西 4m/s
視程10km以上
天気現象
少しの雲 雲底高度 1520m
全天の8割程度の雲 雲底高度 10670m
気温23℃
湿度65%
気圧1009hPa
METARLOWW 230120Z 24007KT 9999 FEW050CB BKN350 23/16 Q1009 TEMPO FM0200 28020G30KT 4000 TSRA
過去の天気等 Google飛行場航空写真 Wunderground天気予報

過去48時間のMETAR

飛行場予報(TAF)
発表時間: 6/23 01:15 CEST (6/22 23:15 UTC)
予報対象時間: 23日2時 CEST ~ 24日8時 CEST
風向・風速南 4m/s
視程10km以上
なし
23日5時 CEST ~ 23日7時 CEST に徐々に
風向・風速西北西 7m/s
23日7時 CEST ~ 23日16時 CEST に一時的に
風向・風速西北西 9m/s 瞬間風速 15m/s
23日7時 CEST ~ 23日14時 CEST に 確率 40% で一時的に
風向・風速北西 13m/s 瞬間風速 20m/s
視程6,000m
天気現象雷雨
少しの積乱雲 雲底高度 1,520m
全天の8割程度の雲 雲底高度 2,440m
23日21時 CEST ~ 23日24時 CEST に徐々に
風向・風速西 4m/s
TAF LOWW 222315Z 2300/2406 19007KT CAVOK TX32/2315Z TN17/2403Z
BECMG 2303/2305 30014KT
TEMPO 2305/2314 30018G30KT
PROB40 TEMPO 2305/2312 31025G38KT 6000 TSRA FEW050CB BKN080
BECMG 2319/2322 28007KT